sensor_id;sensor_type;location;lat;lon;timestamp;pressure;altitude;pressure_sealevel;temperature;humidity
30636;BME280;17400;52.392;9.750;2023-03-01T00:01:13;102523.47;;;2.02;76.94
30636;BME280;17400;52.392;9.750;2023-03-01T00:03:42;102514.59;;;2.02;76.70
30636;BME280;17400;52.392;9.750;2023-03-01T00:06:11;102514.13;;;1.95;76.85
30636;BME280;17400;52.392;9.750;2023-03-01T00:08:39;102523.09;;;1.94;77.22
30636;BME280;17400;52.392;9.750;2023-03-01T00:11:10;102519.00;;;1.88;77.67
30636;BME280;17400;52.392;9.750;2023-03-01T00:13:39;102528.81;;;1.88;78.17
30636;BME280;17400;52.392;9.750;2023-03-01T00:16:11;102516.44;;;1.87;78.20
30636;BME280;17400;52.392;9.750;2023-03-01T00:18:39;102535.28;;;1.83;77.87
30636;BME280;17400;52.392;9.750;2023-03-01T00:21:07;102537.97;;;1.83;77.48
30636;BME280;17400;52.392;9.750;2023-03-01T00:23:36;102530.16;;;1.80;77.13
30636;BME280;17400;52.392;9.750;2023-03-01T00:26:06;102537.47;;;1.77;78.08
30636;BME280;17400;52.392;9.750;2023-03-01T00:28:34;102528.91;;;1.72;78.52
30636;BME280;17400;52.392;9.750;2023-03-01T00:31:03;102529.00;;;1.70;78.49
30636;BME280;17400;52.392;9.750;2023-03-01T00:33:31;102523.84;;;1.67;78.83
30636;BME280;17400;52.392;9.750;2023-03-01T00:35:59;102521.34;;;1.64;79.25
30636;BME280;17400;52.392;9.750;2023-03-01T00:38:27;102522.34;;;1.63;79.70
30636;BME280;17400;52.392;9.750;2023-03-01T00:41:02;102521.28;;;1.65;79.41
30636;BME280;17400;52.392;9.750;2023-03-01T00:43:30;102528.25;;;1.68;79.38
30636;BME280;17400;52.392;9.750;2023-03-01T00:46:04;102526.31;;;1.70;79.35
30636;BME280;17400;52.392;9.750;2023-03-01T00:48:32;102517.56;;;1.68;78.82
30636;BME280;17400;52.392;9.750;2023-03-01T00:51:04;102522.22;;;1.64;79.66
30636;BME280;17400;52.392;9.750;2023-03-01T00:53:33;102519.72;;;1.61;79.50
30636;BME280;17400;52.392;9.750;2023-03-01T00:56:03;102517.25;;;1.58;80.02
30636;BME280;17400;52.392;9.750;2023-03-01T00:58:32;102514.59;;;1.58;79.50
30636;BME280;17400;52.392;9.750;2023-03-01T01:01:00;102504.78;;;1.59;80.72
30636;BME280;17400;52.392;9.750;2023-03-01T01:03:27;102512.78;;;1.59;80.54
30636;BME280;17400;52.392;9.750;2023-03-01T01:05:55;102511.06;;;1.58;80.46
30636;BME280;17400;52.392;9.750;2023-03-01T01:08:23;102514.69;;;1.57;80.59
30636;BME280;17400;52.392;9.750;2023-03-01T01:10:51;102514.09;;;1.52;81.12
30636;BME280;17400;52.392;9.750;2023-03-01T01:13:20;102512.28;;;1.52;81.31
30636;BME280;17400;52.392;9.750;2023-03-01T01:15:48;102514.41;;;1.47;81.55
30636;BME280;17400;52.392;9.750;2023-03-01T01:18:15;102508.38;;;1.43;81.84
30636;BME280;17400;52.392;9.750;2023-03-01T01:20:43;102506.94;;;1.38;82.00
30636;BME280;17400;52.392;9.750;2023-03-01T01:23:11;102507.00;;;1.36;82.57
30636;BME280;17400;52.392;9.750;2023-03-01T01:25:39;102502.72;;;1.33;82.73
30636;BME280;17400;52.392;9.750;2023-03-01T01:28:07;102496.72;;;1.30;83.21
30636;BME280;17400;52.392;9.750;2023-03-01T01:30:36;102500.25;;;1.30;83.16
30636;BME280;17400;52.392;9.750;2023-03-01T01:33:03;102497.78;;;1.27;83.82
30636;BME280;17400;52.392;9.750;2023-03-01T01:35:31;102499.50;;;1.28;84.07
30636;BME280;17400;52.392;9.750;2023-03-01T01:37:59;102491.75;;;1.24;84.11
30636;BME280;17400;52.392;9.750;2023-03-01T01:40:27;102477.63;;;1.22;83.58
30636;BME280;17400;52.392;9.750;2023-03-01T01:42:54;102486.63;;;1.21;83.91
30636;BME280;17400;52.392;9.750;2023-03-01T01:45:28;102477.16;;;1.15;84.61
30636;BME280;17400;52.392;9.750;2023-03-01T01:48:02;102483.38;;;1.15;85.22
30636;BME280;17400;52.392;9.750;2023-03-01T01:50:32;102478.38;;;1.09;85.14
30636;BME280;17400;52.392;9.750;2023-03-01T01:53:07;102490.00;;;1.08;85.87
30636;BME280;17400;52.392;9.750;2023-03-01T01:55:41;102486.47;;;1.08;86.07
30636;BME280;17400;52.392;9.750;2023-03-01T01:58:11;102489.06;;;1.09;86.33
30636;BME280;17400;52.392;9.750;2023-03-01T02:00:40;102479.44;;;1.07;86.51
30636;BME280;17400;52.392;9.750;2023-03-01T02:03:11;102484.00;;;1.05;86.18
30636;BME280;17400;52.392;9.750;2023-03-01T02:05:44;102481.50;;;1.02;86.25
30636;BME280;17400;52.392;9.750;2023-03-01T02:08:21;102478.84;;;1.02;86.73
30636;BME280;17400;52.392;9.750;2023-03-01T02:10:52;102480.66;;;1.01;86.46
30636;BME280;17400;52.392;9.750;2023-03-01T02:13:22;102476.06;;;1.03;86.72
30636;BME280;17400;52.392;9.750;2023-03-01T02:15:49;102467.03;;;1.06;86.80
30636;BME280;17400;52.392;9.750;2023-03-01T02:18:21;102467.91;;;1.06;86.39
30636;BME280;17400;52.392;9.750;2023-03-01T02:21:04;102464.38;;;1.06;86.67
30636;BME280;17400;52.392;9.750;2023-03-01T02:23:35;102463.72;;;1.02;86.50
30636;BME280;17400;52.392;9.750;2023-03-01T02:26:08;102461.78;;;1.04;86.72
30636;BME280;17400;52.392;9.750;2023-03-01T02:28:42;102467.59;;;0.96;86.89
30636;BME280;17400;52.392;9.750;2023-03-01T02:31:14;102475.69;;;0.95;86.46
30636;BME280;17400;52.392;9.750;2023-03-01T02:34:02;102469.66;;;0.91;86.56
30636;BME280;17400;52.392;9.750;2023-03-01T02:36:34;102466.44;;;0.86;87.13
30636;BME280;17400;52.392;9.750;2023-03-01T02:39:05;102465.75;;;0.82;87.13
30636;BME280;17400;52.392;9.750;2023-03-01T02:41:35;102464.97;;;0.80;87.77
30636;BME280;17400;52.392;9.750;2023-03-01T02:44:05;102462.59;;;0.76;88.75
30636;BME280;17400;52.392;9.750;2023-03-01T02:46:42;102455.78;;;0.70;89.06
30636;BME280;17400;52.392;9.750;2023-03-01T02:49:23;102452.34;;;0.68;89.33
30636;BME280;17400;52.392;9.750;2023-03-01T02:52:04;102448.25;;;0.62;89.69
30636;BME280;17400;52.392;9.750;2023-03-01T02:54:40;102445.59;;;0.62;90.18
30636;BME280;17400;52.392;9.750;2023-03-01T02:57:08;102447.47;;;0.60;90.75
30636;BME280;17400;52.392;9.750;2023-03-01T02:59:40;102445.84;;;0.58;90.79
30636;BME280;17400;52.392;9.750;2023-03-01T03:02:18;102428.91;;;0.59;90.70
30636;BME280;17400;52.392;9.750;2023-03-01T03:04:48;102422.78;;;0.57;90.65
30636;BME280;17400;52.392;9.750;2023-03-01T03:07:16;102421.25;;;0.53;90.93
30636;BME280;17400;52.392;9.750;2023-03-01T03:09:43;102418.69;;;0.51;91.53
30636;BME280;17400;52.392;9.750;2023-03-01T03:12:11;102408.03;;;0.51;91.18
30636;BME280;17400;52.392;9.750;2023-03-01T03:14:43;102412.50;;;0.51;91.66
30636;BME280;17400;52.392;9.750;2023-03-01T03:17:10;102407.78;;;0.56;91.10
30636;BME280;17400;52.392;9.750;2023-03-01T03:19:38;102415.78;;;0.56;91.32
30636;BME280;17400;52.392;9.750;2023-03-01T03:22:06;102413.09;;;0.56;91.29
30636;BME280;17400;52.392;9.750;2023-03-01T03:24:35;102403.38;;;0.55;91.00
30636;BME280;17400;52.392;9.750;2023-03-01T03:27:04;102411.38;;;0.55;91.08
30636;BME280;17400;52.392;9.750;2023-03-01T03:29:32;102410.59;;;0.53;91.50
30636;BME280;17400;52.392;9.750;2023-03-01T03:32:03;102412.22;;;0.55;91.57
30636;BME280;17400;52.392;9.750;2023-03-01T03:34:31;102404.25;;;0.55;90.99
30636;BME280;17400;52.392;9.750;2023-03-01T03:36:59;102399.78;;;0.56;91.32
30636;BME280;17400;52.392;9.750;2023-03-01T03:39:27;102400.81;;;0.53;91.44
30636;BME280;17400;52.392;9.750;2023-03-01T03:41:55;102400.13;;;0.49;91.46
30636;BME280;17400;52.392;9.750;2023-03-01T03:44:23;102395.84;;;0.47;91.09
30636;BME280;17400;52.392;9.750;2023-03-01T03:46:50;102393.19;;;0.47;91.74
30636;BME280;17400;52.392;9.750;2023-03-01T03:49:19;102394.81;;;0.49;91.19
30636;BME280;17400;52.392;9.750;2023-03-01T03:51:47;102401.94;;;0.49;91.16
30636;BME280;17400;52.392;9.750;2023-03-01T03:54:15;102396.78;;;0.46;91.24
30636;BME280;17400;52.392;9.750;2023-03-01T03:56:43;102402.09;;;0.46;91.50
30636;BME280;17400;52.392;9.750;2023-03-01T03:59:11;102396.78;;;0.46;91.70
30636;BME280;17400;52.392;9.750;2023-03-01T04:01:38;102408.22;;;0.48;91.81
30636;BME280;17400;52.392;9.750;2023-03-01T04:04:06;102400.97;;;0.50;90.89
30636;BME280;17400;52.392;9.750;2023-03-01T04:06:35;102402.00;;;0.47;89.90
30636;BME280;17400;52.392;9.750;2023-03-01T04:09:03;102408.47;;;0.43;90.38
30636;BME280;17400;52.392;9.750;2023-03-01T04:11:31;102405.31;;;0.37;90.65
30636;BME280;17400;52.392;9.750;2023-03-01T04:14:01;102403.53;;;0.37;90.60
30636;BME280;17400;52.392;9.750;2023-03-01T04:16:30;102411.66;;;0.34;91.17
30636;BME280;17400;52.392;9.750;2023-03-01T04:18:59;102416.25;;;0.32;91.22
30636;BME280;17400;52.392;9.750;2023-03-01T04:21:26;102414.34;;;0.18;91.91
30636;BME280;17400;52.392;9.750;2023-03-01T04:23:56;102419.34;;;0.08;92.66
30636;BME280;17400;52.392;9.750;2023-03-01T04:26:23;102418.41;;;0.09;92.90
30636;BME280;17400;52.392;9.750;2023-03-01T04:28:51;102430.75;;;0.10;92.99
30636;BME280;17400;52.392;9.750;2023-03-01T04:31:19;102423.75;;;0.09;93.21
30636;BME280;17400;52.392;9.750;2023-03-01T04:33:50;102424.69;;;0.08;93.50
30636;BME280;17400;52.392;9.750;2023-03-01T04:36:20;102432.16;;;0.02;93.77
30636;BME280;17400;52.392;9.750;2023-03-01T04:38:48;102435.25;;;-0.06;94.52
30636;BME280;17400;52.392;9.750;2023-03-01T04:41:19;102425.53;;;-0.07;94.87
30636;BME280;17400;52.392;9.750;2023-03-01T04:43:47;102425.63;;;-0.09;94.77
30636;BME280;17400;52.392;9.750;2023-03-01T04:46:17;102422.88;;;-0.07;95.04
30636;BME280;17400;52.392;9.750;2023-03-01T04:48:46;102429.13;;;-0.08;95.05
30636;BME280;17400;52.392;9.750;2023-03-01T04:51:14;102421.22;;;-0.10;95.05
30636;BME280;17400;52.392;9.750;2023-03-01T04:53:42;102413.53;;;0.02;95.59
30636;BME280;17400;52.392;9.750;2023-03-01T04:56:11;102421.09;;;0.09;94.83
30636;BME280;17400;52.392;9.750;2023-03-01T04:58:41;102417.34;;;0.12;94.33
30636;BME280;17400;52.392;9.750;2023-03-01T05:01:10;102416.78;;;0.07;93.85
30636;BME280;17400;52.392;9.750;2023-03-01T05:03:42;102411.59;;;0.04;93.72
30636;BME280;17400;52.392;9.750;2023-03-01T05:06:11;102419.88;;;-0.01;94.08
30636;BME280;17400;52.392;9.750;2023-03-01T05:08:39;102420.22;;;-0.07;94.26
30636;BME280;17400;52.392;9.750;2023-03-01T05:11:07;102415.22;;;-0.13;94.54
30636;BME280;17400;52.392;9.750;2023-03-01T05:13:36;102414.09;;;-0.09;95.11
30636;BME280;17400;52.392;9.750;2023-03-01T05:16:07;102404.94;;;-0.04;94.71
30636;BME280;17400;52.392;9.750;2023-03-01T05:18:38;102404.75;;;-0.01;94.18
30636;BME280;17400;52.392;9.750;2023-03-01T05:21:08;102394.78;;;0.03;93.87
30636;BME280;17400;52.392;9.750;2023-03-01T05:23:36;102404.56;;;0.03;94.31
30636;BME280;17400;52.392;9.750;2023-03-01T05:26:06;102392.47;;;-0.03;94.26
30636;BME280;17400;52.392;9.750;2023-03-01T05:28:47;102402.34;;;-0.05;94.38
30636;BME280;17400;52.392;9.750;2023-03-01T05:31:16;102391.84;;;-0.08;94.59
30636;BME280;17400;52.392;9.750;2023-03-01T05:33:44;102398.41;;;-0.14;94.97
30636;BME280;17400;52.392;9.750;2023-03-01T05:36:12;102393.25;;;-0.17;97.14
30636;BME280;17400;52.392;9.750;2023-03-01T05:38:39;102397.03;;;-0.21;96.13
30636;BME280;17400;52.392;9.750;2023-03-01T05:41:14;102394.59;;;-0.26;96.82
30636;BME280;17400;52.392;9.750;2023-03-01T05:43:42;102385.84;;;-0.28;96.72
30636;BME280;17400;52.392;9.750;2023-03-01T05:46:11;102398.38;;;-0.30;97.23
30636;BME280;17400;52.392;9.750;2023-03-01T05:48:43;102384.91;;;-0.27;97.19
30636;BME280;17400;52.392;9.750;2023-03-01T05:51:11;102398.06;;;-0.24;97.43
30636;BME280;17400;52.392;9.750;2023-03-01T05:53:40;102397.09;;;-0.23;97.27
30636;BME280;17400;52.392;9.750;2023-03-01T05:56:09;102391.09;;;-0.26;97.02
30636;BME280;17400;52.392;9.750;2023-03-01T05:58:37;102395.91;;;-0.33;97.11
30636;BME280;17400;52.392;9.750;2023-03-01T06:01:05;102402.06;;;-0.32;97.16
30636;BME280;17400;52.392;9.750;2023-03-01T06:03:33;102391.59;;;-0.36;97.44
30636;BME280;17400;52.392;9.750;2023-03-01T06:06:02;102400.75;;;-0.41;97.61
30636;BME280;17400;52.392;9.750;2023-03-01T06:08:30;102403.44;;;-0.41;97.79
30636;BME280;17400;52.392;9.750;2023-03-01T06:10:58;102407.06;;;-0.42;97.82
30636;BME280;17400;52.392;9.750;2023-03-01T06:13:25;102412.38;;;-0.42;98.48
30636;BME280;17400;52.392;9.750;2023-03-01T06:15:53;102401.88;;;-0.45;98.89
30636;BME280;17400;52.392;9.750;2023-03-01T06:18:21;102393.97;;;-0.47;99.11
30636;BME280;17400;52.392;9.750;2023-03-01T06:20:52;102408.22;;;-0.48;99.01
30636;BME280;17400;52.392;9.750;2023-03-01T06:23:22;102409.25;;;-0.51;99.37
30636;BME280;17400;52.392;9.750;2023-03-01T06:25:50;102407.69;;;-0.55;99.79
30636;BME280;17400;52.392;9.750;2023-03-01T06:28:18;102406.06;;;-0.57;99.84
30636;BME280;17400;52.392;9.750;2023-03-01T06:30:45;102404.59;;;-0.63;100.00
30636;BME280;17400;52.392;9.750;2023-03-01T06:33:13;102408.38;;;-0.67;100.00
30636;BME280;17400;52.392;9.750;2023-03-01T06:35:41;102411.13;;;-0.69;100.00
30636;BME280;17400;52.392;9.750;2023-03-01T06:38:09;102413.91;;;-0.72;100.00
30636;BME280;17400;52.392;9.750;2023-03-01T06:40:38;102408.78;;;-0.75;100.00
30636;BME280;17400;52.392;9.750;2023-03-01T06:43:06;102409.69;;;-0.76;100.00
30636;BME280;17400;52.392;9.750;2023-03-01T06:45:34;102403.97;;;-0.68;100.00
30636;BME280;17400;52.392;9.750;2023-03-01T06:48:03;102407.50;;;-0.68;100.00
30636;BME280;17400;52.392;9.750;2023-03-01T06:50:33;102401.00;;;-0.62;100.00
30636;BME280;17400;52.392;9.750;2023-03-01T06:53:01;102407.88;;;-0.58;100.00
30636;BME280;17400;52.392;9.750;2023-03-01T06:55:30;102410.88;;;-0.48;100.00
30636;BME280;17400;52.392;9.750;2023-03-01T06:58:00;102401.66;;;-0.41;100.00
30636;BME280;17400;52.392;9.750;2023-03-01T07:00:28;102399.59;;;-0.36;100.00
30636;BME280;17400;52.392;9.750;2023-03-01T07:02:59;102400.19;;;-0.30;100.00
30636;BME280;17400;52.392;9.750;2023-03-01T07:05:29;102401.66;;;-0.25;99.95
30636;BME280;17400;52.392;9.750;2023-03-01T07:07:57;102406.72;;;-0.20;99.41
30636;BME280;17400;52.392;9.750;2023-03-01T07:10:24;102410.84;;;-0.14;99.26
30636;BME280;17400;52.392;9.750;2023-03-01T07:12:55;102401.66;;;-0.09;98.93
30636;BME280;17400;52.392;9.750;2023-03-01T07:15:26;102407.69;;;-0.05;98.90
30636;BME280;17400;52.392;9.750;2023-03-01T07:17:54;102409.22;;;-0.01;99.29
30636;BME280;17400;52.392;9.750;2023-03-01T07:20:21;102403.63;;;0.04;98.49
30636;BME280;17400;52.392;9.750;2023-03-01T07:22:51;102396.31;;;0.07;98.24
30636;BME280;17400;52.392;9.750;2023-03-01T07:25:19;102394.06;;;0.15;97.97
30636;BME280;17400;52.392;9.750;2023-03-01T07:27:49;102390.38;;;0.18;97.41
30636;BME280;17400;52.392;9.750;2023-03-01T07:30:18;102379.28;;;0.26;97.54
30636;BME280;17400;52.392;9.750;2023-03-01T07:32:47;102382.56;;;0.31;97.19
30636;BME280;17400;52.392;9.750;2023-03-01T07:35:15;102386.56;;;0.38;96.38
30636;BME280;17400;52.392;9.750;2023-03-01T07:37:43;102381.81;;;0.43;96.61
30636;BME280;17400;52.392;9.750;2023-03-01T07:40:13;102373.59;;;0.48;96.25
30636;BME280;17400;52.392;9.750;2023-03-01T07:42:41;102375.22;;;0.51;96.02
30636;BME280;17400;52.392;9.750;2023-03-01T07:45:09;102373.19;;;0.54;96.05
30636;BME280;17400;52.392;9.750;2023-03-01T07:47:37;102382.66;;;0.60;95.81
30636;BME280;17400;52.392;9.750;2023-03-01T07:50:08;102374.38;;;0.64;95.45
30636;BME280;17400;52.392;9.750;2023-03-01T07:52:36;102372.97;;;0.73;94.47
30636;BME280;17400;52.392;9.750;2023-03-01T07:55:06;102378.03;;;0.78;93.68
30636;BME280;17400;52.392;9.750;2023-03-01T07:57:34;102367.47;;;0.91;93.67
30636;BME280;17400;52.392;9.750;2023-03-01T08:00:02;102368.53;;;1.03;92.12
30636;BME280;17400;52.392;9.750;2023-03-01T08:02:30;102372.72;;;1.07;91.14
30636;BME280;17400;52.392;9.750;2023-03-01T08:04:58;102380.16;;;1.16;91.20
30636;BME280;17400;52.392;9.750;2023-03-01T08:07:29;102369.88;;;1.24;90.35
30636;BME280;17400;52.392;9.750;2023-03-01T08:09:57;102373.69;;;1.35;90.29
30636;BME280;17400;52.392;9.750;2023-03-01T08:12:24;102370.66;;;1.41;89.51
30636;BME280;17400;52.392;9.750;2023-03-01T08:14:54;102371.31;;;1.44;89.01
30636;BME280;17400;52.392;9.750;2023-03-01T08:17:22;102376.47;;;1.47;89.44
30636;BME280;17400;52.392;9.750;2023-03-01T08:19:49;102368.66;;;1.59;88.76
30636;BME280;17400;52.392;9.750;2023-03-01T08:22:17;102372.41;;;1.69;87.58
30636;BME280;17400;52.392;9.750;2023-03-01T08:24:46;102364.69;;;1.79;87.33
30636;BME280;17400;52.392;9.750;2023-03-01T08:27:15;102358.53;;;1.91;86.95
30636;BME280;17400;52.392;9.750;2023-03-01T08:29:43;102360.94;;;1.96;86.02
30636;BME280;17400;52.392;9.750;2023-03-01T08:32:10;102361.66;;;1.98;85.54
30636;BME280;17400;52.392;9.750;2023-03-01T08:34:38;102363.94;;;2.04;83.80
30636;BME280;17400;52.392;9.750;2023-03-01T08:37:08;102367.38;;;2.06;84.02
30636;BME280;17400;52.392;9.750;2023-03-01T08:39:36;102357.91;;;2.15;82.70
30636;BME280;17400;52.392;9.750;2023-03-01T08:42:05;102360.63;;;2.28;81.57
30636;BME280;17400;52.392;9.750;2023-03-01T08:44:33;102355.50;;;2.38;81.54
30636;BME280;17400;52.392;9.750;2023-03-01T08:47:01;102357.56;;;2.47;80.18
30636;BME280;17400;52.392;9.750;2023-03-01T08:49:34;102353.19;;;2.59;78.96
30636;BME280;17400;52.392;9.750;2023-03-01T08:52:01;102351.69;;;2.55;76.61
30636;BME280;17400;52.392;9.750;2023-03-01T08:54:29;102357.88;;;2.55;76.70
30636;BME280;17400;52.392;9.750;2023-03-01T08:56:57;102352.69;;;2.66;76.72
30636;BME280;17400;52.392;9.750;2023-03-01T08:59:26;102359.31;;;2.74;75.48
30636;BME280;17400;52.392;9.750;2023-03-01T09:01:55;102348.84;;;2.83;74.90
30636;BME280;17400;52.392;9.750;2023-03-01T09:04:23;102355.59;;;2.89;74.79
30636;BME280;17400;52.392;9.750;2023-03-01T09:06:51;102353.13;;;2.99;74.79
30636;BME280;17400;52.392;9.750;2023-03-01T09:09:19;102347.22;;;3.07;73.85
30636;BME280;17400;52.392;9.750;2023-03-01T09:11:46;102347.88;;;3.23;73.35
30636;BME280;17400;52.392;9.750;2023-03-01T09:14:16;102340.78;;;3.35;72.34
30636;BME280;17400;52.392;9.750;2023-03-01T09:16:45;102336.69;;;3.42;71.22
30636;BME280;17400;52.392;9.750;2023-03-01T09:19:16;102338.19;;;3.46;70.10
30636;BME280;17400;52.392;9.750;2023-03-01T09:21:43;102338.00;;;3.49;69.11
30636;BME280;17400;52.392;9.750;2023-03-01T09:24:20;102332.63;;;3.49;68.73
30636;BME280;17400;52.392;9.750;2023-03-01T09:26:48;102335.09;;;3.53;67.08
30636;BME280;17400;52.392;9.750;2023-03-01T09:29:17;102330.28;;;3.32;64.67
30636;BME280;17400;52.392;9.750;2023-03-01T09:31:46;102329.88;;;3.25;65.12
30636;BME280;17400;52.392;9.750;2023-03-01T09:34:16;102322.88;;;3.48;65.87
30636;BME280;17400;52.392;9.750;2023-03-01T09:36:49;102322.75;;;3.63;64.78
30636;BME280;17400;52.392;9.750;2023-03-01T09:39:18;102318.50;;;3.72;64.74
30636;BME280;17400;52.392;9.750;2023-03-01T09:41:52;102323.03;;;3.71;62.54
30636;BME280;17400;52.392;9.750;2023-03-01T09:44:30;102325.66;;;3.84;62.90
30636;BME280;17400;52.392;9.750;2023-03-01T09:47:01;102318.03;;;3.91;62.28
30636;BME280;17400;52.392;9.750;2023-03-01T09:49:31;102312.22;;;3.97;61.11
30636;BME280;17400;52.392;9.750;2023-03-01T09:52:04;102316.31;;;3.90;60.18
30636;BME280;17400;52.392;9.750;2023-03-01T09:54:35;102329.53;;;3.80;59.54
30636;BME280;17400;52.392;9.750;2023-03-01T09:57:07;102322.19;;;3.95;60.38
30636;BME280;17400;52.392;9.750;2023-03-01T09:59:56;102317.63;;;4.08;60.85
30636;BME280;17400;52.392;9.750;2023-03-01T10:02:33;102317.81;;;4.18;60.74
30636;BME280;17400;52.392;9.750;2023-03-01T10:05:15;102313.78;;;3.99;60.19
30636;BME280;17400;52.392;9.750;2023-03-01T10:07:56;102321.25;;;4.07;58.95
30636;BME280;17400;52.392;9.750;2023-03-01T10:10:32;102324.44;;;4.12;57.79
30636;BME280;17400;52.392;9.750;2023-03-01T10:13:08;102315.19;;;4.05;57.23
30636;BME280;17400;52.392;9.750;2023-03-01T10:15:42;102317.84;;;4.05;57.43
30636;BME280;17400;52.392;9.750;2023-03-01T10:18:16;102319.38;;;3.96;57.71
30636;BME280;17400;52.392;9.750;2023-03-01T10:20:50;102316.91;;;4.06;57.77
30636;BME280;17400;52.392;9.750;2023-03-01T10:23:19;102318.13;;;4.13;58.39
30636;BME280;17400;52.392;9.750;2023-03-01T10:25:54;102316.94;;;3.93;57.90
30636;BME280;17400;52.392;9.750;2023-03-01T10:28:26;102316.91;;;4.06;58.97
30636;BME280;17400;52.392;9.750;2023-03-01T10:30:57;102316.09;;;4.17;59.25
30636;BME280;17400;52.392;9.750;2023-03-01T10:33:30;102318.53;;;4.20;58.71
30636;BME280;17400;52.392;9.750;2023-03-01T10:35:58;102319.41;;;4.32;59.10
30636;BME280;17400;52.392;9.750;2023-03-01T10:38:30;102313.59;;;4.38;58.19
30636;BME280;17400;52.392;9.750;2023-03-01T10:41:00;102308.97;;;4.40;57.88
30636;BME280;17400;52.392;9.750;2023-03-01T10:43:43;102311.91;;;4.48;58.47
30636;BME280;17400;52.392;9.750;2023-03-01T10:46:25;102300.34;;;4.48;57.79
30636;BME280;17400;52.392;9.750;2023-03-01T10:49:14;102307.16;;;4.52;57.46
30636;BME280;17400;52.392;9.750;2023-03-01T10:51:43;102301.34;;;4.58;58.04
30636;BME280;17400;52.392;9.750;2023-03-01T10:54:17;102305.56;;;4.49;55.89
30636;BME280;17400;52.392;9.750;2023-03-01T10:56:46;102310.72;;;4.53;56.61
30636;BME280;17400;52.392;9.750;2023-03-01T10:59:25;102308.25;;;4.49;55.87
30636;BME280;17400;52.392;9.750;2023-03-01T11:02:13;102299.94;;;4.41;55.43
30636;BME280;17400;52.392;9.750;2023-03-01T11:05:00;102302.16;;;4.47;55.29
30636;BME280;17400;52.392;9.750;2023-03-01T11:07:29;102291.94;;;4.53;55.32
30636;BME280;17400;52.392;9.750;2023-03-01T11:09:56;102293.16;;;4.60;55.90
30636;BME280;17400;52.392;9.750;2023-03-01T11:12:24;102291.94;;;4.53;55.65
30636;BME280;17400;52.392;9.750;2023-03-01T11:14:57;102291.94;;;4.53;55.53
30636;BME280;17400;52.392;9.750;2023-03-01T11:17:28;102285.59;;;4.54;56.26
30636;BME280;17400;52.392;9.750;2023-03-01T11:20:10;102285.13;;;4.60;55.74
30636;BME280;17400;52.392;9.750;2023-03-01T11:22:46;102283.91;;;4.64;56.16
30636;BME280;17400;52.392;9.750;2023-03-01T11:25:15;102289.06;;;4.67;55.46
30636;BME280;17400;52.392;9.750;2023-03-01T11:27:45;102282.47;;;4.71;55.99
30636;BME280;17400;52.392;9.750;2023-03-01T11:30:19;102289.66;;;4.71;54.09
30636;BME280;17400;52.392;9.750;2023-03-01T11:32:57;102284.88;;;4.63;53.25
30636;BME280;17400;52.392;9.750;2023-03-01T11:35:30;102275.84;;;4.64;53.31
30636;BME280;17400;52.392;9.750;2023-03-01T11:38:09;102279.72;;;4.48;53.33
30636;BME280;17400;52.392;9.750;2023-03-01T11:40:45;102283.91;;;4.53;52.66
30636;BME280;17400;52.392;9.750;2023-03-01T11:43:26;102280.13;;;4.66;53.34
30636;BME280;17400;52.392;9.750;2023-03-01T11:46:07;102271.63;;;4.73;53.05
30636;BME280;17400;52.392;9.750;2023-03-01T11:48:50;102268.56;;;4.77;53.03
30636;BME280;17400;52.392;9.750;2023-03-01T11:51:25;102266.13;;;4.74;52.36
30636;BME280;17400;52.392;9.750;2023-03-01T11:54:13;102261.22;;;4.68;52.58
30636;BME280;17400;52.392;9.750;2023-03-01T11:56:45;102260.50;;;4.66;53.56
30636;BME280;17400;52.392;9.750;2023-03-01T11:59:41;102257.09;;;4.75;53.17
30636;BME280;17400;52.392;9.750;2023-03-01T12:02:27;102248.81;;;4.78;53.20
30636;BME280;17400;52.392;9.750;2023-03-01T12:05:35;102250.25;;;4.82;52.90
30636;BME280;17400;52.392;9.750;2023-03-01T12:08:15;102250.03;;;4.86;52.39
30636;BME280;17400;52.392;9.750;2023-03-01T12:10:56;102237.84;;;4.93;51.91
30636;BME280;17400;52.392;9.750;2023-03-01T12:13:49;102233.53;;;5.13;51.79
30636;BME280;17400;52.392;9.750;2023-03-01T12:16:30;102236.56;;;5.31;50.50
30636;BME280;17400;52.392;9.750;2023-03-01T12:19:15;102236.88;;;5.49;51.24
30636;BME280;17400;52.392;9.750;2023-03-01T12:21:57;102230.22;;;5.76;49.88
30636;BME280;17400;52.392;9.750;2023-03-01T12:30:39;102212.00;;;6.33;48.63
30636;BME280;17400;52.392;9.750;2023-03-01T12:33:19;102205.28;;;6.48;48.38
30636;BME280;17400;52.392;9.750;2023-03-01T12:36:04;102205.19;;;6.60;47.77
30636;BME280;17400;52.392;9.750;2023-03-01T12:38:41;102198.44;;;6.65;47.01
30636;BME280;17400;52.392;9.750;2023-03-01T12:41:43;102194.97;;;6.84;46.86
30636;BME280;17400;52.392;9.750;2023-03-01T12:44:23;102190.19;;;7.08;46.12
30636;BME280;17400;52.392;9.750;2023-03-01T12:47:07;102184.28;;;7.14;45.13
30636;BME280;17400;52.392;9.750;2023-03-01T12:49:39;102175.66;;;7.20;46.04
30636;BME280;17400;52.392;9.750;2023-03-01T12:52:13;102175.38;;;7.23;46.21
30636;BME280;17400;52.392;9.750;2023-03-01T12:54:44;102169.41;;;7.20;44.47
30636;BME280;17400;52.392;9.750;2023-03-01T12:57:17;102170.72;;;7.35;45.48
30636;BME280;17400;52.392;9.750;2023-03-01T12:59:59;102176.94;;;7.55;45.27
30636;BME280;17400;52.392;9.750;2023-03-01T13:02:36;102167.91;;;7.66;44.61
30636;BME280;17400;52.392;9.750;2023-03-01T13:05:23;102167.88;;;7.76;44.53
30636;BME280;17400;52.392;9.750;2023-03-01T13:07:58;102167.59;;;7.89;44.51
30636;BME280;17400;52.392;9.750;2023-03-01T13:10:33;102155.78;;;7.90;44.97
30636;BME280;17400;52.392;9.750;2023-03-01T13:13:12;102155.94;;;7.98;44.09
30636;BME280;17400;52.392;9.750;2023-03-01T13:15:40;102147.69;;;8.09;44.19
30636;BME280;17400;52.392;9.750;2023-03-01T13:18:32;102150.78;;;8.14;43.98
30636;BME280;17400;52.392;9.750;2023-03-01T13:21:02;102151.78;;;8.13;44.87
30636;BME280;17400;52.392;9.750;2023-03-01T13:23:36;102151.50;;;8.16;44.62
30636;BME280;17400;52.392;9.750;2023-03-01T13:26:10;102144.97;;;8.19;43.91